sensor_id;sensor_type;location;lat;lon;timestamp;temperature;humidity
55135;DHT22;41031;44.750;11.308;2023-03-23T00:02:27;11.80;87.00
55135;DHT22;41031;44.750;11.308;2023-03-23T00:04:53;11.80;87.00
55135;DHT22;41031;44.750;11.308;2023-03-23T00:07:23;11.80;87.10
55135;DHT22;41031;44.750;11.308;2023-03-23T00:09:54;11.70;86.90
55135;DHT22;41031;44.750;11.308;2023-03-23T00:12:21;11.70;86.80
55135;DHT22;41031;44.750;11.308;2023-03-23T00:14:55;11.60;87.10
55135;DHT22;41031;44.750;11.308;2023-03-23T00:17:21;11.60;87.30
55135;DHT22;41031;44.750;11.308;2023-03-23T00:19:49;11.60;87.70
55135;DHT22;41031;44.750;11.308;2023-03-23T00:22:17;11.60;87.80
55135;DHT22;41031;44.750;11.308;2023-03-23T00:24:48;11.60;88.10
55135;DHT22;41031;44.750;11.308;2023-03-23T00:27:17;11.60;88.20
55135;DHT22;41031;44.750;11.308;2023-03-23T00:29:43;11.60;88.30
55135;DHT22;41031;44.750;11.308;2023-03-23T00:32:12;11.60;88.40
55135;DHT22;41031;44.750;11.308;2023-03-23T00:34:40;11.60;88.60
55135;DHT22;41031;44.750;11.308;2023-03-23T00:37:09;11.60;88.70
55135;DHT22;41031;44.750;11.308;2023-03-23T00:39:35;11.50;88.70
55135;DHT22;41031;44.750;11.308;2023-03-23T00:42:04;11.50;88.80
55135;DHT22;41031;44.750;11.308;2023-03-23T00:44:32;11.50;89.00
55135;DHT22;41031;44.750;11.308;2023-03-23T00:47:01;11.50;89.10
55135;DHT22;41031;44.750;11.308;2023-03-23T00:49:30;11.40;89.10
55135;DHT22;41031;44.750;11.308;2023-03-23T00:51:57;11.40;89.30
55135;DHT22;41031;44.750;11.308;2023-03-23T00:54:24;11.40;89.50
55135;DHT22;41031;44.750;11.308;2023-03-23T00:56:51;11.30;89.50
55135;DHT22;41031;44.750;11.308;2023-03-23T00:59:17;11.30;89.60
55135;DHT22;41031;44.750;11.308;2023-03-23T01:01:43;11.30;89.70
55135;DHT22;41031;44.750;11.308;2023-03-23T01:04:09;11.20;89.60
55135;DHT22;41031;44.750;11.308;2023-03-23T01:06:40;11.20;89.50
55135;DHT22;41031;44.750;11.308;2023-03-23T01:09:07;11.20;89.30
55135;DHT22;41031;44.750;11.308;2023-03-23T01:11:34;11.10;89.00
55135;DHT22;41031;44.750;11.308;2023-03-23T01:14:00;11.00;88.90
55135;DHT22;41031;44.750;11.308;2023-03-23T01:16:26;11.00;88.90
55135;DHT22;41031;44.750;11.308;2023-03-23T01:18:52;11.00;89.40
55135;DHT22;41031;44.750;11.308;2023-03-23T01:21:19;10.90;89.60
55135;DHT22;41031;44.750;11.308;2023-03-23T01:23:46;10.90;89.90
55135;DHT22;41031;44.750;11.308;2023-03-23T01:26:15;10.90;90.00
55135;DHT22;41031;44.750;11.308;2023-03-23T01:28:42;10.90;90.20
55135;DHT22;41031;44.750;11.308;2023-03-23T01:31:11;10.80;90.10
55135;DHT22;41031;44.750;11.308;2023-03-23T01:33:39;10.80;90.10
55135;DHT22;41031;44.750;11.308;2023-03-23T01:36:08;10.80;90.00
55135;DHT22;41031;44.750;11.308;2023-03-23T01:38:35;10.70;90.00
55135;DHT22;41031;44.750;11.308;2023-03-23T01:41:04;10.70;90.10
55135;DHT22;41031;44.750;11.308;2023-03-23T01:43:31;10.70;90.20
55135;DHT22;41031;44.750;11.308;2023-03-23T01:45:57;10.60;90.30
55135;DHT22;41031;44.750;11.308;2023-03-23T01:48:31;10.60;90.60
55135;DHT22;41031;44.750;11.308;2023-03-23T01:50:59;10.60;90.80
55135;DHT22;41031;44.750;11.308;2023-03-23T01:53:32;10.60;90.90
55135;DHT22;41031;44.750;11.308;2023-03-23T01:56:00;10.70;91.00
55135;DHT22;41031;44.750;11.308;2023-03-23T01:58:31;10.70;91.00
55135;DHT22;41031;44.750;11.308;2023-03-23T02:01:02;10.70;91.00
55135;DHT22;41031;44.750;11.308;2023-03-23T02:03:30;10.60;91.00
55135;DHT22;41031;44.750;11.308;2023-03-23T02:05:58;10.60;90.90
55135;DHT22;41031;44.750;11.308;2023-03-23T02:08:35;10.60;90.90
55135;DHT22;41031;44.750;11.308;2023-03-23T02:11:15;10.60;90.90
55135;DHT22;41031;44.750;11.308;2023-03-23T02:13:42;10.60;91.00
55135;DHT22;41031;44.750;11.308;2023-03-23T02:22:29;10.60;91.20
55135;DHT22;41031;44.750;11.308;2023-03-23T02:39:04;10.30;90.60
55135;DHT22;41031;44.750;11.308;2023-03-23T02:41:38;10.30;90.60
55135;DHT22;41031;44.750;11.308;2023-03-23T02:44:06;10.30;90.60
55135;DHT22;41031;44.750;11.308;2023-03-23T02:46:35;10.20;90.50
55135;DHT22;41031;44.750;11.308;2023-03-23T02:49:03;10.20;90.50
55135;DHT22;41031;44.750;11.308;2023-03-23T02:51:33;10.10;90.40
55135;DHT22;41031;44.750;11.308;2023-03-23T02:54:00;10.20;90.50
55135;DHT22;41031;44.750;11.308;2023-03-23T02:56:28;10.10;90.70
55135;DHT22;41031;44.750;11.308;2023-03-23T02:58:56;10.10;91.00
55135;DHT22;41031;44.750;11.308;2023-03-23T03:03:54;10.20;91.30
55135;DHT22;41031;44.750;11.308;2023-03-23T03:06:37;10.20;91.40
55135;DHT22;41031;44.750;11.308;2023-03-23T03:09:38;10.10;91.40
55135;DHT22;41031;44.750;11.308;2023-03-23T03:12:08;10.10;91.40
55135;DHT22;41031;44.750;11.308;2023-03-23T03:17:53;10.10;91.60
55135;DHT22;41031;44.750;11.308;2023-03-23T03:20:22;10.10;91.60
55135;DHT22;41031;44.750;11.308;2023-03-23T03:22:51;10.10;91.60
55135;DHT22;41031;44.750;11.308;2023-03-23T03:25:20;10.10;91.40
55135;DHT22;41031;44.750;11.308;2023-03-23T03:27:51;10.10;91.40
55135;DHT22;41031;44.750;11.308;2023-03-23T03:30:33;10.10;91.30
55135;DHT22;41031;44.750;11.308;2023-03-23T03:33:01;10.10;91.30
55135;DHT22;41031;44.750;11.308;2023-03-23T03:35:30;10.10;91.30
55135;DHT22;41031;44.750;11.308;2023-03-23T03:37:57;10.10;91.30
55135;DHT22;41031;44.750;11.308;2023-03-23T03:40:30;10.10;91.30
55135;DHT22;41031;44.750;11.308;2023-03-23T03:42:56;10.00;91.30
55135;DHT22;41031;44.750;11.308;2023-03-23T03:45:22;10.00;91.30
55135;DHT22;41031;44.750;11.308;2023-03-23T03:47:49;10.00;91.30
55135;DHT22;41031;44.750;11.308;2023-03-23T03:50:16;10.00;91.40
55135;DHT22;41031;44.750;11.308;2023-03-23T03:52:42;10.00;91.60
55135;DHT22;41031;44.750;11.308;2023-03-23T03:55:09;10.00;91.70
55135;DHT22;41031;44.750;11.308;2023-03-23T03:57:39;10.00;91.70
55135;DHT22;41031;44.750;11.308;2023-03-23T04:00:40;10.00;91.70
55135;DHT22;41031;44.750;11.308;2023-03-23T04:03:08;10.00;91.50
55135;DHT22;41031;44.750;11.308;2023-03-23T04:05:55;9.90;91.40
55135;DHT22;41031;44.750;11.308;2023-03-23T04:08:22;9.90;91.50
55135;DHT22;41031;44.750;11.308;2023-03-23T04:10:49;9.80;91.60
55135;DHT22;41031;44.750;11.308;2023-03-23T04:13:18;9.80;91.70
55135;DHT22;41031;44.750;11.308;2023-03-23T04:15:58;9.90;91.80
55135;DHT22;41031;44.750;11.308;2023-03-23T04:18:24;9.80;91.80
55135;DHT22;41031;44.750;11.308;2023-03-23T04:20:51;9.80;91.80
55135;DHT22;41031;44.750;11.308;2023-03-23T04:23:20;9.80;91.90
55135;DHT22;41031;44.750;11.308;2023-03-23T04:25:50;9.80;91.90
55135;DHT22;41031;44.750;11.308;2023-03-23T04:28:17;9.80;91.90
55135;DHT22;41031;44.750;11.308;2023-03-23T04:31:04;9.90;92.10
55135;DHT22;41031;44.750;11.308;2023-03-23T04:33:30;9.90;92.20
55135;DHT22;41031;44.750;11.308;2023-03-23T04:36:00;9.90;92.20
55135;DHT22;41031;44.750;11.308;2023-03-23T04:38:36;9.90;92.10
55135;DHT22;41031;44.750;11.308;2023-03-23T04:41:10;9.90;91.90
55135;DHT22;41031;44.750;11.308;2023-03-23T04:43:45;9.90;91.90
55135;DHT22;41031;44.750;11.308;2023-03-23T04:46:21;9.90;91.90
55135;DHT22;41031;44.750;11.308;2023-03-23T04:48:49;9.90;91.90
55135;DHT22;41031;44.750;11.308;2023-03-23T04:51:20;9.90;91.90
55135;DHT22;41031;44.750;11.308;2023-03-23T04:53:49;9.90;91.80
55135;DHT22;41031;44.750;11.308;2023-03-23T04:56:15;9.90;91.80
55135;DHT22;41031;44.750;11.308;2023-03-23T04:58:44;9.90;91.70
55135;DHT22;41031;44.750;11.308;2023-03-23T05:01:37;9.90;91.60
55135;DHT22;41031;44.750;11.308;2023-03-23T05:04:16;9.80;91.50
55135;DHT22;41031;44.750;11.308;2023-03-23T05:06:51;9.80;91.60
55135;DHT22;41031;44.750;11.308;2023-03-23T05:09:23;9.70;91.70
55135;DHT22;41031;44.750;11.308;2023-03-23T05:11:49;9.70;91.90
55135;DHT22;41031;44.750;11.308;2023-03-23T05:14:15;9.70;92.00
55135;DHT22;41031;44.750;11.308;2023-03-23T05:16:45;9.70;92.10
55135;DHT22;41031;44.750;11.308;2023-03-23T05:19:16;9.70;92.20
55135;DHT22;41031;44.750;11.308;2023-03-23T05:21:43;9.80;92.40
55135;DHT22;41031;44.750;11.308;2023-03-23T05:24:10;9.90;92.40
55135;DHT22;41031;44.750;11.308;2023-03-23T05:26:37;9.90;92.30
55135;DHT22;41031;44.750;11.308;2023-03-23T05:29:11;9.90;92.70
55135;DHT22;41031;44.750;11.308;2023-03-23T05:31:47;10.00;92.50
55135;DHT22;41031;44.750;11.308;2023-03-23T05:34:14;10.00;92.50
55135;DHT22;41031;44.750;11.308;2023-03-23T05:36:49;10.10;92.50
55135;DHT22;41031;44.750;11.308;2023-03-23T05:39:47;10.10;92.40
55135;DHT22;41031;44.750;11.308;2023-03-23T05:42:36;10.20;92.40
55135;DHT22;41031;44.750;11.308;2023-03-23T05:45:09;10.20;92.30
55135;DHT22;41031;44.750;11.308;2023-03-23T05:47:38;10.30;92.30
55135;DHT22;41031;44.750;11.308;2023-03-23T05:50:09;10.30;92.30
55135;DHT22;41031;44.750;11.308;2023-03-23T05:52:38;10.30;92.10
55135;DHT22;41031;44.750;11.308;2023-03-23T05:55:08;10.30;92.00
55135;DHT22;41031;44.750;11.308;2023-03-23T05:57:37;10.30;92.20
55135;DHT22;41031;44.750;11.308;2023-03-23T06:00:23;10.40;91.90
55135;DHT22;41031;44.750;11.308;2023-03-23T06:03:00;10.50;91.90
55135;DHT22;41031;44.750;11.308;2023-03-23T06:05:33;10.50;91.90
55135;DHT22;41031;44.750;11.308;2023-03-23T06:07:59;10.60;91.90
55135;DHT22;41031;44.750;11.308;2023-03-23T06:10:26;10.70;91.90
55135;DHT22;41031;44.750;11.308;2023-03-23T06:12:58;10.80;91.90
55135;DHT22;41031;44.750;11.308;2023-03-23T06:15:32;10.90;91.90
55135;DHT22;41031;44.750;11.308;2023-03-23T06:18:13;11.00;92.00
55135;DHT22;41031;44.750;11.308;2023-03-23T06:21:03;11.20;92.10
55135;DHT22;41031;44.750;11.308;2023-03-23T06:23:45;11.40;92.00
55135;DHT22;41031;44.750;11.308;2023-03-23T06:26:17;11.60;91.80
55135;DHT22;41031;44.750;11.308;2023-03-23T06:28:46;11.80;91.60
55135;DHT22;41031;44.750;11.308;2023-03-23T06:31:13;11.90;91.50
55135;DHT22;41031;44.750;11.308;2023-03-23T06:33:40;12.00;91.50
55135;DHT22;41031;44.750;11.308;2023-03-23T06:36:07;12.20;91.60
55135;DHT22;41031;44.750;11.308;2023-03-23T06:39:08;12.30;91.40
55135;DHT22;41031;44.750;11.308;2023-03-23T06:41:57;12.50;91.30
55135;DHT22;41031;44.750;11.308;2023-03-23T06:44:27;12.80;90.90
55135;DHT22;41031;44.750;11.308;2023-03-23T06:46:53;13.00;90.50
55135;DHT22;41031;44.750;11.308;2023-03-23T06:49:25;13.20;90.20
55135;DHT22;41031;44.750;11.308;2023-03-23T06:51:59;13.30;89.80
55135;DHT22;41031;44.750;11.308;2023-03-23T06:54:28;13.50;89.30
55135;DHT22;41031;44.750;11.308;2023-03-23T06:56:54;13.70;88.80
55135;DHT22;41031;44.750;11.308;2023-03-23T06:59:21;13.80;88.40
55135;DHT22;41031;44.750;11.308;2023-03-23T07:01:47;13.90;88.10
55135;DHT22;41031;44.750;11.308;2023-03-23T07:04:14;14.00;87.90
55135;DHT22;41031;44.750;11.308;2023-03-23T07:07:11;14.10;87.60
55135;DHT22;41031;44.750;11.308;2023-03-23T07:09:49;14.20;87.30
55135;DHT22;41031;44.750;11.308;2023-03-23T07:12:19;14.40;87.00
55135;DHT22;41031;44.750;11.308;2023-03-23T07:14:47;14.50;86.60
55135;DHT22;41031;44.750;11.308;2023-03-23T07:17:14;14.50;86.00
55135;DHT22;41031;44.750;11.308;2023-03-23T07:19:52;14.60;85.70
55135;DHT22;41031;44.750;11.308;2023-03-23T07:22:20;14.80;85.80
55135;DHT22;41031;44.750;11.308;2023-03-23T07:24:54;14.90;85.80
55135;DHT22;41031;44.750;11.308;2023-03-23T07:27:28;15.10;85.50
55135;DHT22;41031;44.750;11.308;2023-03-23T07:29:57;15.20;85.10
55135;DHT22;41031;44.750;11.308;2023-03-23T07:32:25;15.20;84.00
55135;DHT22;41031;44.750;11.308;2023-03-23T07:34:52;15.40;83.30
55135;DHT22;41031;44.750;11.308;2023-03-23T07:37:33;15.40;81.90
55135;DHT22;41031;44.750;11.308;2023-03-23T07:39:59;15.50;81.50
55135;DHT22;41031;44.750;11.308;2023-03-23T07:42:26;15.60;80.90
55135;DHT22;41031;44.750;11.308;2023-03-23T07:44:57;15.70;80.90
55135;DHT22;41031;44.750;11.308;2023-03-23T07:47:23;15.80;80.10
55135;DHT22;41031;44.750;11.308;2023-03-23T07:49:49;15.80;80.30
55135;DHT22;41031;44.750;11.308;2023-03-23T07:52:30;15.90;80.00
55135;DHT22;41031;44.750;11.308;2023-03-23T07:54:57;16.00;79.40
55135;DHT22;41031;44.750;11.308;2023-03-23T07:57:41;16.00;79.30
55135;DHT22;41031;44.750;11.308;2023-03-23T08:00:08;16.10;79.40
55135;DHT22;41031;44.750;11.308;2023-03-23T08:02:47;16.20;78.40
55135;DHT22;41031;44.750;11.308;2023-03-23T08:05:30;16.30;77.70
55135;DHT22;41031;44.750;11.308;2023-03-23T08:08:13;16.40;77.30
55135;DHT22;41031;44.750;11.308;2023-03-23T08:10:57;16.50;76.90
55135;DHT22;41031;44.750;11.308;2023-03-23T08:14:02;16.50;76.40
55135;DHT22;41031;44.750;11.308;2023-03-23T08:16:47;16.60;75.90
55135;DHT22;41031;44.750;11.308;2023-03-23T08:19:35;16.60;75.70
55135;DHT22;41031;44.750;11.308;2023-03-23T08:22:20;16.70;75.20
55135;DHT22;41031;44.750;11.308;2023-03-23T08:25:08;16.80;75.30
55135;DHT22;41031;44.750;11.308;2023-03-23T08:28:00;16.80;74.80
55135;DHT22;41031;44.750;11.308;2023-03-23T08:30:49;17.00;74.80
55135;DHT22;41031;44.750;11.308;2023-03-23T08:33:26;17.00;73.70
55135;DHT22;41031;44.750;11.308;2023-03-23T08:36:08;17.10;73.50
55135;DHT22;41031;44.750;11.308;2023-03-23T08:39:01;17.20;73.40
55135;DHT22;41031;44.750;11.308;2023-03-23T08:41:37;17.20;73.40
55135;DHT22;41031;44.750;11.308;2023-03-23T08:44:14;17.20;73.60
55135;DHT22;41031;44.750;11.308;2023-03-23T08:47:03;17.20;73.60
55135;DHT22;41031;44.750;11.308;2023-03-23T08:49:47;17.30;73.40
55135;DHT22;41031;44.750;11.308;2023-03-23T08:52:56;17.40;73.80
55135;DHT22;41031;44.750;11.308;2023-03-23T08:55:37;17.50;73.80
55135;DHT22;41031;44.750;11.308;2023-03-23T08:58:25;17.60;73.10
55135;DHT22;41031;44.750;11.308;2023-03-23T09:01:23;17.70;72.90
55135;DHT22;41031;44.750;11.308;2023-03-23T09:04:08;17.80;72.60
55135;DHT22;41031;44.750;11.308;2023-03-23T09:06:55;17.90;72.30
55135;DHT22;41031;44.750;11.308;2023-03-23T09:09:21;17.90;71.80
55135;DHT22;41031;44.750;11.308;2023-03-23T09:11:47;18.00;71.80
55135;DHT22;41031;44.750;11.308;2023-03-23T09:14:13;18.20;71.60
55135;DHT22;41031;44.750;11.308;2023-03-23T09:16:39;18.40;71.20
55135;DHT22;41031;44.750;11.308;2023-03-23T09:19:05;18.60;70.60
55135;DHT22;41031;44.750;11.308;2023-03-23T09:21:34;18.80;69.50
55135;DHT22;41031;44.750;11.308;2023-03-23T09:24:00;18.90;68.50
55135;DHT22;41031;44.750;11.308;2023-03-23T09:26:27;19.00;68.50
55135;DHT22;41031;44.750;11.308;2023-03-23T09:28:54;19.20;68.60
55135;DHT22;41031;44.750;11.308;2023-03-23T09:31:22;19.50;67.80
55135;DHT22;41031;44.750;11.308;2023-03-23T09:33:52;19.70;67.60
55135;DHT22;41031;44.750;11.308;2023-03-23T09:36:19;19.90;67.20
55135;DHT22;41031;44.750;11.308;2023-03-23T09:38:49;20.10;66.10
55135;DHT22;41031;44.750;11.308;2023-03-23T09:46:52;20.70;64.60
55135;DHT22;41031;44.750;11.308;2023-03-23T09:52:01;21.20;63.20
55135;DHT22;41031;44.750;11.308;2023-03-23T09:54:35;21.40;63.30
55135;DHT22;41031;44.750;11.308;2023-03-23T09:57:03;21.50;62.90
55135;DHT22;41031;44.750;11.308;2023-03-23T09:59:37;21.40;62.30
55135;DHT22;41031;44.750;11.308;2023-03-23T10:02:14;21.30;62.60
55135;DHT22;41031;44.750;11.308;2023-03-23T10:04:50;21.10;62.70
55135;DHT22;41031;44.750;11.308;2023-03-23T10:07:23;21.00;63.60
55135;DHT22;41031;44.750;11.308;2023-03-23T10:10:00;20.80;63.70
55135;DHT22;41031;44.750;11.308;2023-03-23T10:15:15;20.50;65.70
55135;DHT22;41031;44.750;11.308;2023-03-23T10:17:57;20.50;65.60
55135;DHT22;41031;44.750;11.308;2023-03-23T10:20:50;20.60;65.80
55135;DHT22;41031;44.750;11.308;2023-03-23T10:28:39;21.10;64.30
55135;DHT22;41031;44.750;11.308;2023-03-23T10:31:11;21.30;63.70
55135;DHT22;41031;44.750;11.308;2023-03-23T10:39:11;21.60;61.00
55135;DHT22;41031;44.750;11.308;2023-03-23T10:41:38;21.50;61.60
55135;DHT22;41031;44.750;11.308;2023-03-23T10:44:17;21.50;60.60
55135;DHT22;41031;44.750;11.308;2023-03-23T10:47:01;21.20;60.20
55135;DHT22;41031;44.750;11.308;2023-03-23T10:52:38;20.90;63.20
55135;DHT22;41031;44.750;11.308;2023-03-23T10:55:17;20.90;63.80
55135;DHT22;41031;44.750;11.308;2023-03-23T10:57:46;21.00;62.30
55135;DHT22;41031;44.750;11.308;2023-03-23T11:00:24;21.00;61.20
55135;DHT22;41031;44.750;11.308;2023-03-23T11:03:06;21.10;60.90
55135;DHT22;41031;44.750;11.308;2023-03-23T11:05:40;21.20;60.80
55135;DHT22;41031;44.750;11.308;2023-03-23T11:08:18;21.30;59.20
55135;DHT22;41031;44.750;11.308;2023-03-23T11:11:08;21.30;60.30
55135;DHT22;41031;44.750;11.308;2023-03-23T11:13:40;21.30;60.50
55135;DHT22;41031;44.750;11.308;2023-03-23T11:16:09;21.30;60.80
55135;DHT22;41031;44.750;11.308;2023-03-23T11:18:39;21.20;61.40
55135;DHT22;41031;44.750;11.308;2023-03-23T11:21:07;21.30;61.40
55135;DHT22;41031;44.750;11.308;2023-03-23T11:23:37;21.40;61.50
55135;DHT22;41031;44.750;11.308;2023-03-23T11:26:17;21.40;61.50
55135;DHT22;41031;44.750;11.308;2023-03-23T11:31:39;21.30;60.80
55135;DHT22;41031;44.750;11.308;2023-03-23T11:35:03;21.10;60.00
55135;DHT22;41031;44.750;11.308;2023-03-23T11:37:14;21.00;60.20
55135;DHT22;41031;44.750;11.308;2023-03-23T11:40:22;20.80;60.80
55135;DHT22;41031;44.750;11.308;2023-03-23T11:45:33;20.50;61.30
55135;DHT22;41031;44.750;11.308;2023-03-23T11:48:12;20.40;62.00
55135;DHT22;41031;44.750;11.308;2023-03-23T11:56:34;20.10;65.00
55135;DHT22;41031;44.750;11.308;2023-03-23T11:59:01;20.10;66.20
55135;DHT22;41031;44.750;11.308;2023-03-23T12:15:47;20.60;63.30
55135;DHT22;41031;44.750;11.308;2023-03-23T12:26:58;21.70;59.80
55135;DHT22;41031;44.750;11.308;2023-03-23T12:38:10;21.60;57.90
55135;DHT22;41031;44.750;11.308;2023-03-23T12:41:11;21.50;56.90
55135;DHT22;41031;44.750;11.308;2023-03-23T12:43:50;21.40;56.50
55135;DHT22;41031;44.750;11.308;2023-03-23T12:49:39;21.30;56.00
55135;DHT22;41031;44.750;11.308;2023-03-23T12:52:26;21.20;57.20
55135;DHT22;41031;44.750;11.308;2023-03-23T13:03:46;21.30;56.20
55135;DHT22;41031;44.750;11.308;2023-03-23T13:06:36;21.40;58.00
55135;DHT22;41031;44.750;11.308;2023-03-23T13:11:37;21.40;56.90
55135;DHT22;41031;44.750;11.308;2023-03-23T13:14:18;21.50;56.60
55135;DHT22;41031;44.750;11.308;2023-03-23T13:19:51;21.90;57.70
55135;DHT22;41031;44.750;11.308;2023-03-23T13:22:24;22.10;56.80
55135;DHT22;41031;44.750;11.308;2023-03-23T13:25:02;22.20;54.30
55135;DHT22;41031;44.750;11.308;2023-03-23T13:27:29;22.30;53.70
55135;DHT22;41031;44.750;11.308;2023-03-23T13:29:57;22.40;51.80
55135;DHT22;41031;44.750;11.308;2023-03-23T13:32:37;22.40;52.00
55135;DHT22;41031;44.750;11.308;2023-03-23T13:35:11;22.40;51.10
55135;DHT22;41031;44.750;11.308;2023-03-23T13:37:45;22.50;50.50
55135;DHT22;41031;44.750;11.308;2023-03-23T13:42:52;22.50;51.20
55135;DHT22;41031;44.750;11.308;2023-03-23T13:48:02;22.60;52.60
55135;DHT22;41031;44.750;11.308;2023-03-23T13:50:30;22.60;51.40
55135;DHT22;41031;44.750;11.308;2023-03-23T13:53:01;22.60;51.80
55135;DHT22;41031;44.750;11.308;2023-03-23T13:55:40;22.60;51.40
55135;DHT22;41031;44.750;11.308;2023-03-23T14:00:37;22.70;51.70
55135;DHT22;41031;44.750;11.308;2023-03-23T14:03:24;22.70;51.40
55135;DHT22;41031;44.750;11.308;2023-03-23T14:06:03;22.80;51.20
55135;DHT22;41031;44.750;11.308;2023-03-23T14:14:03;22.70;49.30
55135;DHT22;41031;44.750;11.308;2023-03-23T14:16:48;22.60;49.90
55135;DHT22;41031;44.750;11.308;2023-03-23T14:19:24;22.70;50.00
55135;DHT22;41031;44.750;11.308;2023-03-23T14:21:52;22.70;50.50
55135;DHT22;41031;44.750;11.308;2023-03-23T14:24:26;22.60;50.90
55135;DHT22;41031;44.750;11.308;2023-03-23T14:27:03;22.60;50.70
55135;DHT22;41031;44.750;11.308;2023-03-23T14:29:33;22.60;49.70
55135;DHT22;41031;44.750;11.308;2023-03-23T14:32:00;22.50;49.70
55135;DHT22;41031;44.750;11.308;2023-03-23T14:34:29;22.50;49.70
55135;DHT22;41031;44.750;11.308;2023-03-23T14:36:57;22.40;49.70
55135;DHT22;41031;44.750;11.308;2023-03-23T14:39:25;22.40;49.20
55135;DHT22;41031;44.750;11.308;2023-03-23T14:41:54;22.40;50.60
55135;DHT22;41031;44.750;11.308;2023-03-23T14:44:33;22.40;49.20
55135;DHT22;41031;44.750;11.308;2023-03-23T14:47:05;22.40;48.90
55135;DHT22;41031;44.750;11.308;2023-03-23T14:49:38;22.30;48.60
55135;DHT22;41031;44.750;11.308;2023-03-23T14:52:17;22.30;48.90
55135;DHT22;41031;44.750;11.308;2023-03-23T14:54:45;22.30;48.60
55135;DHT22;41031;44.750;11.308;2023-03-23T14:57:14;22.30;49.00
55135;DHT22;41031;44.750;11.308;2023-03-23T14:59:42;22.30;49.40
55135;DHT22;41031;44.750;11.308;2023-03-23T15:02:12;22.30;49.30
55135;DHT22;41031;44.750;11.308;2023-03-23T15:04:39;22.20;49.20
55135;DHT22;41031;44.750;11.308;2023-03-23T15:07:05;22.20;49.90
55135;DHT22;41031;44.750;11.308;2023-03-23T15:09:32;22.20;49.80
55135;DHT22;41031;44.750;11.308;2023-03-23T15:12:02;22.20;49.40
55135;DHT22;41031;44.750;11.308;2023-03-23T15:14:50;22.10;49.80
55135;DHT22;41031;44.750;11.308;2023-03-23T15:17:20;22.10;50.50
55135;DHT22;41031;44.750;11.308;2023-03-23T15:19:47;22.10;51.00
55135;DHT22;41031;44.750;11.308;2023-03-23T15:22:24;22.10;51.10
55135;DHT22;41031;44.750;11.308;2023-03-23T15:25:08;22.00;51.50
55135;DHT22;41031;44.750;11.308;2023-03-23T15:27:40;22.00;51.50
55135;DHT22;41031;44.750;11.308;2023-03-23T15:30:31;21.90;51.30
55135;DHT22;41031;44.750;11.308;2023-03-23T15:35:34;21.80;50.50
55135;DHT22;41031;44.750;11.308;2023-03-23T15:38:03;21.80;50.00
55135;DHT22;41031;44.750;11.308;2023-03-23T15:40:37;21.70;50.00
55135;DHT22;41031;44.750;11.308;2023-03-23T15:46:19;21.60;50.60
55135;DHT22;41031;44.750;11.308;2023-03-23T15:51:23;21.40;51.60
55135;DHT22;41031;44.750;11.308;2023-03-23T15:53:51;21.40;51.50
55135;DHT22;41031;44.750;11.308;2023-03-23T15:56:17;21.30;51.50
55135;DHT22;41031;44.750;11.308;2023-03-23T15:58:44;21.30;51.80
55135;DHT22;41031;44.750;11.308;2023-03-23T16:01:20;21.30;51.80
55135;DHT22;41031;44.750;11.308;2023-03-23T16:04:00;21.20;50.80
55135;DHT22;41031;44.750;11.308;2023-03-23T16:06:32;21.20;52.10
55135;DHT22;41031;44.750;11.308;2023-03-23T16:09:00;21.20;52.20
55135;DHT22;41031;44.750;11.308;2023-03-23T16:11:30;21.10;52.90
55135;DHT22;41031;44.750;11.308;2023-03-23T16:13:58;21.10;53.30
55135;DHT22;41031;44.750;11.308;2023-03-23T16:16:34;21.00;53.70
55135;DHT22;41031;44.750;11.308;2023-03-23T16:19:03;21.00;54.40
55135;DHT22;41031;44.750;11.308;2023-03-23T16:21:31;20.90;54.80
55135;DHT22;41031;44.750;11.308;2023-03-23T16:23:58;20.80;55.20
55135;DHT22;41031;44.750;11.308;2023-03-23T16:26:25;20.70;55.40
55135;DHT22;41031;44.750;11.308;2023-03-23T16:28:52;20.70;55.30
55135;DHT22;41031;44.750;11.308;2023-03-23T16:31:31;20.60;55.60
55135;DHT22;41031;44.750;11.308;2023-03-23T16:33:58;20.60;56.00
55135;DHT22;41031;44.750;11.308;2023-03-23T16:36:25;20.50;56.40
55135;DHT22;41031;44.750;11.308;2023-03-23T16:38:52;20.40;56.90
55135;DHT22;41031;44.750;11.308;2023-03-23T16:41:20;20.40;57.30
55135;DHT22;41031;44.750;11.308;2023-03-23T16:43:47;20.30;57.60
55135;DHT22;41031;44.750;11.308;2023-03-23T16:46:14;20.30;57.80
55135;DHT22;41031;44.750;11.308;2023-03-23T16:48:42;20.20;58.10
55135;DHT22;41031;44.750;11.308;2023-03-23T16:51:09;20.20;58.40
55135;DHT22;41031;44.750;11.308;2023-03-23T16:53:36;20.10;58.60
55135;DHT22;41031;44.750;11.308;2023-03-23T16:56:03;20.00;58.90
55135;DHT22;41031;44.750;11.308;2023-03-23T16:58:30;20.00;59.60
55135;DHT22;41031;44.750;11.308;2023-03-23T17:00:57;19.90;59.30
55135;DHT22;41031;44.750;11.308;2023-03-23T17:03:26;19.80;59.50
55135;DHT22;41031;44.750;11.308;2023-03-23T17:05:53;19.70;59.90
55135;DHT22;41031;44.750;11.308;2023-03-23T17:08:20;19.60;60.20
55135;DHT22;41031;44.750;11.308;2023-03-23T17:10:47;19.50;60.50
55135;DHT22;41031;44.750;11.308;2023-03-23T17:13:15;19.40;60.90
55135;DHT22;41031;44.750;11.308;2023-03-23T17:15:43;19.30;61.30
55135;DHT22;41031;44.750;11.308;2023-03-23T17:18:13;19.30;61.70
55135;DHT22;41031;44.750;11.308;2023-03-23T17:20:41;19.10;62.00
55135;DHT22;41031;44.750;11.308;2023-03-23T17:23:08;19.10;62.50
55135;DHT22;41031;44.750;11.308;2023-03-23T17:25:35;19.00;62.90
55135;DHT22;41031;44.750;11.308;2023-03-23T17:28:03;18.90;63.30
55135;DHT22;41031;44.750;11.308;2023-03-23T17:30:33;18.80;63.60
55135;DHT22;41031;44.750;11.308;2023-03-23T17:33:00;18.70;63.80
55135;DHT22;41031;44.750;11.308;2023-03-23T17:35:27;18.70;63.80
55135;DHT22;41031;44.750;11.308;2023-03-23T17:37:54;18.60;63.70
55135;DHT22;41031;44.750;11.308;2023-03-23T17:40:21;18.50;63.70
55135;DHT22;41031;44.750;11.308;2023-03-23T17:42:48;18.50;63.70
55135;DHT22;41031;44.750;11.308;2023-03-23T17:45:15;18.50;63.70
55135;DHT22;41031;44.750;11.308;2023-03-23T17:47:42;18.40;63.80
55135;DHT22;41031;44.750;11.308;2023-03-23T17:50:09;18.40;64.00
55135;DHT22;41031;44.750;11.308;2023-03-23T17:52:39;18.30;64.10
55135;DHT22;41031;44.750;11.308;2023-03-23T17:55:07;18.30;64.30
55135;DHT22;41031;44.750;11.308;2023-03-23T17:57:34;18.30;64.50
55135;DHT22;41031;44.750;11.308;2023-03-23T18:00:03;18.20;64.80
55135;DHT22;41031;44.750;11.308;2023-03-23T18:02:34;18.10;65.30
55135;DHT22;41031;44.750;11.308;2023-03-23T18:05:01;18.00;65.70